Time;durP1;ratioP1;P1;durP2;ratioP2;P2;SDS_P1;SDS_P2;PMS_P1;PMS_P2;Temp;Humidity;BMP_temperature;BMP_pressure;BME280_temperature;BME280_humidity;BME280_pressure;Samples;Min_cycle;Max_cycle;Signal;HPM_P1;HPM_P2
2021/04/27 00:01:54;;;;;;;6.70;2.35;;;3.30;94.80;;;;;;5025973;28;20041;-64
2021/04/27 00:04:20;;;;;;;7.70;2.80;;;3.20;94.80;;;;;;5025858;28;20412;-64
2021/04/27 00:06:47;;;;;;;5.20;2.10;;;3.20;94.90;;;;;;5022528;28;20045;-64
2021/04/27 00:09:13;;;;;;;3.53;1.70;;;3.10;94.90;;;;;;5018366;28;20085;-64
2021/04/27 00:11:39;;;;;;;7.85;2.53;;;3.10;95.00;;;;;;5018570;28;20491;-64
2021/04/27 00:14:06;;;;;;;5.18;2.15;;;3.10;94.90;;;;;;5019558;28;20499;-64
2021/04/27 00:16:32;;;;;;;7.80;3.15;;;3.10;95.00;;;;;;5021336;28;20042;-64
2021/04/27 00:18:58;;;;;;;6.80;1.92;;;3.20;95.20;;;;;;5020392;28;20076;-64
2021/04/27 00:21:23;;;;;;;11.65;3.63;;;3.10;95.00;;;;;;5019975;28;20038;-64
2021/04/27 00:23:49;;;;;;;5.70;3.05;;;3.10;95.00;;;;;;5020763;28;20038;-64
2021/04/27 00:26:15;;;;;;;8.93;2.53;;;3.00;95.10;;;;;;5019536;28;20041;-64
2021/04/27 00:28:40;;;;;;;8.57;2.33;;;3.00;95.40;;;;;;5020380;28;20045;-64
2021/04/27 00:31:07;;;;;;;3.40;2.15;;;3.00;95.60;;;;;;5022048;28;20045;-64
2021/04/27 00:33:32;;;;;;;5.53;2.30;;;2.90;95.60;;;;;;5026358;28;20053;-64
2021/04/27 00:35:59;;;;;;;4.80;2.88;;;2.90;95.50;;;;;;5026096;28;20850;-64
2021/04/27 00:38:25;;;;;;;7.93;2.55;;;2.80;95.60;;;;;;5027429;28;20088;-64
2021/04/27 00:40:51;;;;;;;10.32;2.88;;;2.90;95.60;;;;;;5022486;28;20052;-64
2021/04/27 00:43:17;;;;;;;6.95;3.05;;;2.80;95.70;;;;;;5022264;28;20033;-64
2021/04/27 00:45:43;;;;;;;4.20;2.28;;;2.90;95.70;;;;;;5035826;28;20072;-64
2021/04/27 00:48:08;;;;;;;4.18;2.53;;;3.10;95.70;;;;;;5040397;28;20838;-64
2021/04/27 00:50:37;;;;;;;6.03;2.72;;;2.80;95.70;;;;;;5027649;28;20033;-64
2021/04/27 00:53:04;;;;;;;6.57;2.30;;;2.80;95.70;;;;;;5029468;28;20038;-64
2021/04/27 00:55:31;;;;;;;5.43;2.08;;;3.00;95.80;;;;;;5028356;28;20041;-64
2021/04/27 00:58:00;;;;;;;6.93;3.00;;;2.80;95.80;;;;;;5044366;28;20182;-64
2021/04/27 01:00:30;;;;;;;5.32;2.45;;;2.80;95.80;;;;;;5026732;28;20064;-64
2021/04/27 01:02:56;;;;;;;8.55;3.05;;;2.70;96.10;;;;;;5030543;28;20514;-64
2021/04/27 01:05:25;;;;;;;4.18;2.38;;;2.80;95.80;;;;;;5024810;28;20038;-64
2021/04/27 01:08:04;;;;;;;9.02;2.97;;;2.70;95.90;;;;;;5030397;28;20104;-64
2021/04/27 01:10:57;;;;;;;5.25;2.15;;;2.70;96.10;;;;;;5023345;28;20122;-64
2021/04/27 01:13:35;;;;;;;5.72;2.22;;;2.70;96.20;;;;;;5025704;28;20037;-64
2021/04/27 01:16:02;;;;;;;11.25;2.35;;;2.70;96.30;;;;;;5024118;28;20123;-64
2021/04/27 01:18:31;;;;;;;5.60;2.35;;;2.70;96.40;;;;;;5021535;28;20046;-64
2021/04/27 01:21:00;;;;;;;5.28;2.70;;;2.70;96.20;;;;;;5021380;28;20059;-64
2021/04/27 01:23:45;;;;;;;9.73;2.88;;;2.60;96.20;;;;;;5029117;28;20045;-64
2021/04/27 01:26:20;;;;;;;4.18;2.30;;;2.70;96.30;;;;;;5024762;28;20400;-64
2021/04/27 01:28:47;;;;;;;5.43;2.88;;;2.60;96.40;;;;;;5022629;28;20099;-64
2021/04/27 01:31:16;;;;;;;6.13;3.20;;;2.60;96.50;;;;;;5024377;28;21812;-64
2021/04/27 01:33:42;;;;;;;8.05;2.83;;;2.70;96.90;;;;;;5025445;28;20104;-64
2021/04/27 01:36:09;;;;;;;8.40;3.25;;;2.60;96.60;;;;;;5028338;28;20034;-64
2021/04/27 01:38:35;;;;;;;8.32;3.28;;;2.60;96.40;;;;;;5030207;28;20048;-64
2021/04/27 01:41:01;;;;;;;9.98;3.50;;;2.60;96.60;;;;;;5029045;28;20052;-64
2021/04/27 01:43:28;;;;;;;7.95;3.50;;;2.60;96.60;;;;;;5030119;28;20124;-64
2021/04/27 01:46:02;;;;;;;7.03;3.53;;;2.60;96.80;;;;;;5025934;28;20037;-64
2021/04/27 01:48:28;;;;;;;7.47;3.20;;;2.60;96.90;;;;;;5027813;28;20040;-64
2021/04/27 01:50:55;;;;;;;7.90;3.83;;;2.60;96.90;;;;;;5027542;28;20120;-64
2021/04/27 01:53:21;;;;;;;9.70;3.47;;;2.50;96.80;;;;;;5028260;28;20124;-64
2021/04/27 01:55:48;;;;;;;9.95;4.15;;;2.60;97.00;;;;;;5028809;28;20123;-64
2021/04/27 01:58:14;;;;;;;10.73;4.22;;;2.50;97.40;;;;;;5029527;28;20510;-64
2021/04/27 02:00:40;;;;;;;5.82;3.45;;;2.50;97.30;;;;;;5029206;28;20035;-64
2021/04/27 02:03:06;;;;;;;6.90;3.63;;;2.60;97.40;;;;;;5028528;28;21421;-64
2021/04/27 02:05:32;;;;;;;13.35;4.40;;;2.60;97.30;;;;;;5029006;28;20068;-64
2021/04/27 02:07:58;;;;;;;9.20;4.05;;;2.50;97.50;;;;;;5024132;28;20045;-64
2021/04/27 02:10:26;;;;;;;11.32;3.88;;;2.50;97.70;;;;;;5027274;28;20037;-64
2021/04/27 02:12:53;;;;;;;8.13;3.75;;;2.40;97.50;;;;;;5027307;28;20056;-64
2021/04/27 02:15:22;;;;;;;8.77;4.05;;;2.40;97.50;;;;;;5027215;28;20041;-64
2021/04/27 02:18:12;;;;;;;7.45;4.05;;;2.40;97.60;;;;;;5027808;28;20069;-64
2021/04/27 02:20:39;;;;;;;7.45;3.55;;;2.40;97.50;;;;;;5028368;28;20044;-64
2021/04/27 02:23:06;;;;;;;10.75;4.07;;;2.40;97.30;;;;;;5026051;28;20121;-64
2021/04/27 02:25:31;;;;;;;6.07;3.80;;;2.40;97.40;;;;;;5023707;28;20180;-64
2021/04/27 02:27:58;;;;;;;11.23;4.10;;;2.40;97.30;;;;;;5026506;28;20100;-64
2021/04/27 02:30:25;;;;;;;7.78;3.78;;;3.30;97.70;;;;;;5026918;28;20092;-64
2021/04/27 02:32:52;;;;;;;7.10;4.00;;;2.40;97.30;;;;;;5027904;28;20034;-64
2021/04/27 02:35:19;;;;;;;11.45;4.03;;;2.40;97.50;;;;;;5027340;28;20042;-64
2021/04/27 02:37:49;;;;;;;6.00;3.95;;;2.40;97.40;;;;;;5027368;28;20045;-64
2021/04/27 02:40:19;;;;;;;7.93;4.40;;;2.40;97.40;;;;;;5025575;28;20458;-64
2021/04/27 02:42:51;;;;;;;11.18;5.15;;;2.40;97.30;;;;;;5028233;28;20041;-64
2021/04/27 02:45:17;;;;;;;8.05;4.13;;;2.40;97.50;;;;;;5026800;28;20048;-64
2021/04/27 02:47:43;;;;;;;9.82;4.80;;;2.40;97.50;;;;;;5026847;28;20049;-64
2021/04/27 02:50:11;;;;;;;8.63;4.90;;;2.40;97.50;;;;;;5027407;28;20034;-64
2021/04/27 02:52:39;;;;;;;8.82;5.10;;;2.40;97.60;;;;;;5027709;28;20864;-64
2021/04/27 02:55:05;;;;;;;15.95;6.03;;;2.40;97.70;;;;;;5028552;28;20041;-64
2021/04/27 02:57:31;;;;;;;9.75;4.82;;;2.40;97.70;;;;;;5025382;28;20046;-63
2021/04/27 02:59:57;;;;;;;11.00;4.82;;;2.40;97.70;;;;;;5026612;28;20060;-64
2021/04/27 03:02:22;;;;;;;10.95;4.70;;;2.40;97.80;;;;;;5025887;28;20484;-64
2021/04/27 03:04:48;;;;;;;9.05;5.22;;;2.40;97.70;;;;;;5026948;28;20119;-64
2021/04/27 03:07:14;;;;;;;14.98;5.30;;;2.30;97.80;;;;;;5026972;28;20549;-64
2021/04/27 03:09:39;;;;;;;6.78;4.05;;;2.30;98.00;;;;;;5024730;28;20491;-64
2021/04/27 03:12:05;;;;;;;8.68;4.90;;;2.30;97.90;;;;;;5026459;28;20041;-64
2021/04/27 03:14:31;;;;;;;6.82;4.35;;;2.30;97.80;;;;;;5025693;28;20037;-64
2021/04/27 03:16:57;;;;;;;8.48;5.10;;;2.30;97.80;;;;;;5025619;28;20045;-64
2021/04/27 03:19:22;;;;;;;7.50;4.20;;;2.20;97.80;;;;;;5026010;28;20048;-64
2021/04/27 03:21:48;;;;;;;6.25;4.47;;;2.10;97.80;;;;;;5026204;28;20045;-64
2021/04/27 03:24:14;;;;;;;7.10;4.53;;;2.10;97.70;;;;;;5027344;28;20109;-64
2021/04/27 03:26:39;;;;;;;6.57;4.22;;;2.10;97.70;;;;;;5027639;28;20037;-63
2021/04/27 03:29:05;;;;;;;10.10;5.18;;;2.10;97.70;;;;;;5027030;28;20029;-64
2021/04/27 03:31:32;;;;;;;9.10;4.68;;;2.10;97.60;;;;;;5022240;28;20052;-64
2021/04/27 03:33:59;;;;;;;9.18;5.03;;;2.10;97.70;;;;;;5026084;28;20551;-64
2021/04/27 03:36:25;;;;;;;10.02;4.80;;;2.10;97.80;;;;;;5027882;28;20048;-64
2021/04/27 03:38:51;;;;;;;8.45;5.00;;;2.10;97.70;;;;;;5025781;28;20033;-64
2021/04/27 03:41:16;;;;;;;8.23;5.03;;;2.00;97.90;;;;;;5027209;28;20116;-64
2021/04/27 03:43:42;;;;;;;7.57;4.70;;;2.00;97.80;;;;;;5026247;28;20064;-64
2021/04/27 03:46:08;;;;;;;8.63;5.45;;;2.00;97.90;;;;;;5025410;28;20042;-64
2021/04/27 03:48:33;;;;;;;12.65;4.95;;;2.10;97.90;;;;;;5026692;28;20037;-63
2021/04/27 03:51:00;;;;;;;10.55;5.22;;;2.00;97.90;;;;;;5025862;28;20519;-64
2021/04/27 03:53:27;;;;;;;10.88;4.13;;;2.00;97.90;;;;;;5026274;28;20037;-64
2021/04/27 03:55:53;;;;;;;9.80;5.07;;;2.10;98.00;;;;;;5024712;28;20045;-63
2021/04/27 03:58:19;;;;;;;14.05;5.63;;;2.00;97.90;;;;;;5021792;28;20041;-64
2021/04/27 04:00:44;;;;;;;12.07;5.18;;;2.00;97.90;;;;;;5023293;28;20034;-64
2021/04/27 04:03:10;;;;;;;12.40;5.60;;;2.00;97.90;;;;;;5026038;28;20030;-63
2021/04/27 04:05:36;;;;;;;11.52;5.40;;;1.90;97.80;;;;;;5027660;28;20439;-63
2021/04/27 04:08:01;;;;;;;8.90;4.47;;;2.70;98.00;;;;;;5026718;28;20037;-63
2021/04/27 04:10:27;;;;;;;8.55;4.90;;;1.90;97.80;;;;;;5027228;28;20474;-63
2021/04/27 04:12:54;;;;;;;6.70;4.60;;;1.90;97.80;;;;;;5025903;28;20040;-63
2021/04/27 04:15:21;;;;;;;13.45;5.30;;;1.90;97.90;;;;;;5028284;28;20044;-63
2021/04/27 04:17:47;;;;;;;12.52;5.50;;;1.90;97.90;;;;;;5029391;28;20045;-63
2021/04/27 04:20:17;;;;;;;9.48;4.95;;;1.90;98.00;;;;;;5030902;28;20049;-63
2021/04/27 04:22:43;;;;;;;12.38;6.15;;;1.90;98.00;;;;;;5031604;28;20100;-64
2021/04/27 04:25:11;;;;;;;11.30;5.82;;;1.90;98.00;;;;;;5030716;28;20117;-63
2021/04/27 04:27:38;;;;;;;11.45;6.18;;;1.90;98.20;;;;;;5029740;28;20812;-63
2021/04/27 04:30:07;;;;;;;10.00;4.97;;;1.80;98.30;;;;;;5029213;28;20037;-63
2021/04/27 04:32:33;;;;;;;9.38;5.03;;;1.80;98.30;;;;;;5029452;28;20033;-63
2021/04/27 04:34:59;;;;;;;7.38;4.60;;;1.80;98.30;;;;;;5028910;28;20049;-63
2021/04/27 04:37:26;;;;;;;9.05;5.35;;;1.80;98.30;;;;;;5029389;28;20049;-63
2021/04/27 04:39:52;;;;;;;9.73;5.22;;;1.90;98.30;;;;;;5030079;28;20061;-63
2021/04/27 04:42:17;;;;;;;6.00;4.93;;;2.00;98.20;;;;;;5029525;28;20115;-63
2021/04/27 04:44:43;;;;;;;9.80;5.22;;;2.00;98.10;;;;;;5029982;28;20044;-63
2021/04/27 04:47:09;;;;;;;10.43;5.07;;;2.10;98.00;;;;;;5028069;28;20049;-63
2021/04/27 04:49:35;;;;;;;11.25;4.65;;;2.20;97.90;;;;;;5028880;28;20029;-63
2021/04/27 04:52:01;;;;;;;8.73;4.38;;;2.40;97.90;;;;;;5024802;28;20136;-63
2021/04/27 04:54:26;;;;;;;17.80;4.90;;;2.70;97.90;;;;;;5023289;28;20091;-63
2021/04/27 04:56:52;;;;;;;22.60;4.72;;;3.10;97.60;;;;;;5023373;28;20045;-64
2021/04/27 04:59:18;;;;;;;11.02;4.05;;;3.50;97.20;;;;;;5023538;28;20048;-63
2021/04/27 05:01:44;;;;;;;10.70;3.88;;;4.20;96.30;;;;;;5022615;28;20045;-63
2021/04/27 05:04:10;;;;;;;17.55;3.65;;;4.80;94.70;;;;;;5027062;28;20080;-64
2021/04/27 05:06:39;;;;;;;15.18;3.92;;;5.40;93.20;;;;;;5022303;28;20051;-64
2021/04/27 05:09:06;;;;;;;7.45;3.13;;;6.10;93.10;;;;;;5020523;28;20046;-64
2021/04/27 05:11:32;;;;;;;7.20;3.28;;;7.00;91.00;;;;;;5021234;28;20041;-64
2021/04/27 05:13:58;;;;;;;9.40;3.17;;;7.50;89.80;;;;;;5020432;28;20068;-64
2021/04/27 05:16:27;;;;;;;4.50;2.72;;;7.50;87.20;;;;;;5022848;28;20049;-64
2021/04/27 05:18:53;;;;;;;7.50;3.42;;;7.60;87.50;;;;;;5022384;28;20044;-64
2021/04/27 05:21:19;;;;;;;7.82;3.40;;;8.10;84.30;;;;;;5022922;28;20033;-64
2021/04/27 05:23:45;;;;;;;5.50;2.60;;;8.50;81.10;;;;;;5022254;28;20438;-64
2021/04/27 05:26:12;;;;;;;5.40;2.15;;;8.90;79.00;;;;;;5019257;28;21637;-64
2021/04/27 05:28:38;;;;;;;7.80;2.85;;;9.60;76.80;;;;;;5022101;28;20105;-64
2021/04/27 05:31:04;;;;;;;5.43;2.38;;;10.00;72.60;;;;;;5020303;28;20045;-64
2021/04/27 05:33:31;;;;;;;4.82;2.00;;;10.70;68.10;;;;;;5021090;28;20033;-64
2021/04/27 05:35:57;;;;;;;9.90;2.67;;;11.40;65.00;;;;;;5021100;28;20046;-64
2021/04/27 05:38:23;;;;;;;6.88;2.10;;;11.80;61.10;;;;;;5019658;28;20042;-64
2021/04/27 05:40:49;;;;;;;4.97;2.30;;;12.10;60.10;;;;;;5019767;28;20033;-64
2021/04/27 05:43:15;;;;;;;6.22;2.08;;;12.50;58.80;;;;;;5020647;28;20400;-64
2021/04/27 05:45:41;;;;;;;4.90;2.45;;;12.80;56.70;;;;;;5019925;28;20076;-64
2021/04/27 05:48:07;;;;;;;7.38;2.25;;;13.00;55.20;;;;;;5024265;28;20045;-64
2021/04/27 05:50:33;;;;;;;4.65;2.67;;;12.90;53.20;;;;;;5028399;28;20053;-64
2021/04/27 05:52:59;;;;;;;4.25;2.90;;;12.60;52.60;;;;;;5024683;28;20049;-64
2021/04/27 05:55:26;;;;;;;6.68;2.47;;;13.20;53.60;;;;;;5025431;28;20526;-64
2021/04/27 05:57:52;;;;;;;7.47;2.45;;;13.20;53.80;;;;;;5028387;28;20042;-64
2021/04/27 06:00:18;;;;;;;2.80;1.88;;;13.30;51.50;;;;;;5024804;28;20627;-64
2021/04/27 06:02:44;;;;;;;3.83;2.28;;;13.90;52.50;;;;;;5043601;28;20075;-64
2021/04/27 06:05:10;;;;;;;6.25;2.05;;;14.70;52.10;;;;;;5027938;28;20064;-64
2021/04/27 06:07:37;;;;;;;4.43;1.85;;;15.40;50.30;;;;;;5027881;28;20454;-65
2021/04/27 06:10:04;;;;;;;6.55;1.88;;;15.50;45.10;;;;;;5022702;28;20041;-65
2021/04/27 06:12:30;;;;;;;2.80;1.77;;;15.10;46.50;;;;;;5021075;28;20676;-65
2021/04/27 06:14:55;;;;;;;7.57;2.00;;;14.80;47.20;;;;;;5023910;28;20037;-65
2021/04/27 06:17:21;;;;;;;3.78;1.90;;;14.30;49.00;;;;;;5024408;28;20433;-65
2021/04/27 06:19:47;;;;;;;3.83;1.75;;;13.20;48.80;;;;;;5021804;28;20042;-65
2021/04/27 06:22:13;;;;;;;4.55;1.63;;;12.30;51.60;;;;;;5023024;28;20481;-65
2021/04/27 06:24:38;;;;;;;4.88;1.67;;;12.00;53.10;;;;;;5026219;28;20772;-65
2021/04/27 06:27:04;;;;;;;6.43;1.85;;;11.10;53.00;;;;;;5024551;28;20688;-65
2021/04/27 06:29:30;;;;;;;3.05;1.77;;;10.90;55.20;;;;;;5024548;28;20056;-65
2021/04/27 06:31:56;;;;;;;4.40;1.73;;;10.60;57.20;;;;;;5028781;28;20137;-65
2021/04/27 06:34:22;;;;;;;4.15;1.80;;;10.60;58.60;;;;;;5025925;28;20053;-64
2021/04/27 06:36:48;;;;;;;3.67;1.98;;;10.20;57.30;;;;;;5022605;28;20570;-64
2021/04/27 06:39:14;;;;;;;4.20;1.83;;;10.00;57.30;;;;;;5027927;28;20049;-64
2021/04/27 06:41:40;;;;;;;11.32;1.80;;;10.10;59.40;;;;;;5028954;28;20475;-64
2021/04/27 06:44:05;;;;;;;7.22;1.63;;;10.00;57.80;;;;;;5027697;28;20083;-64
2021/04/27 06:46:31;;;;;;;4.00;1.35;;;10.10;59.60;;;;;;5026639;28;20041;-64
2021/04/27 06:48:58;;;;;;;4.97;1.90;;;10.20;59.90;;;;;;5026716;28;20180;-64
2021/04/27 06:51:24;;;;;;;6.30;1.33;;;10.40;59.30;;;;;;5027289;28;20052;-64
2021/04/27 06:53:50;;;;;;;3.47;1.30;;;10.50;60.30;;;;;;5027007;28;20049;-65
2021/04/27 06:56:16;;;;;;;2.30;1.10;;;10.50;57.60;;;;;;5025773;28;20491;-64
2021/04/27 06:58:42;;;;;;;5.43;1.45;;;10.50;57.30;;;;;;5027414;28;20045;-64
2021/04/27 07:01:09;;;;;;;5.97;1.30;;;10.40;57.40;;;;;;5025604;28;20037;-64
2021/04/27 07:03:36;;;;;;;3.40;1.50;;;10.40;57.40;;;;;;5026660;28;20041;-64
2021/04/27 07:06:03;;;;;;;2.90;1.08;;;10.30;57.30;;;;;;5027771;28;20056;-64
2021/04/27 07:08:29;;;;;;;6.85;2.17;;;10.50;57.40;;;;;;5027134;28;20107;-64
2021/04/27 07:10:57;;;;;;;6.07;1.52;;;10.50;56.40;;;;;;5027615;28;20045;-64
2021/04/27 07:13:24;;;;;;;6.68;1.40;;;10.50;57.50;;;;;;5026973;28;20132;-64
2021/04/27 07:15:50;;;;;;;11.77;1.65;;;10.80;57.40;;;;;;5023301;28;20050;-64
2021/04/27 07:18:19;;;;;;;3.33;1.23;;;11.10;59.30;;;;;;5024378;28;20045;-64
2021/04/27 07:20:45;;;;;;;2.28;1.00;;;11.20;55.30;;;;;;5025903;28;20103;-64
2021/04/27 07:23:11;;;;;;;6.63;1.95;;;11.10;56.00;;;;;;5024600;28;20037;-65
2021/04/27 07:25:37;;;;;;;2.20;1.20;;;11.20;55.70;;;;;;5027687;28;20395;-64
2021/04/27 07:28:05;;;;;;;1.83;1.00;;;11.10;53.40;;;;;;5027042;28;20037;-65
2021/04/27 07:30:33;;;;;;;2.22;1.00;;;11.00;54.00;;;;;;5025955;28;20033;-65
2021/04/27 07:32:59;;;;;;;2.67;1.10;;;11.10;55.60;;;;;;5026927;28;20048;-65
2021/04/27 07:35:24;;;;;;;3.88;1.25;;;11.20;56.40;;;;;;5024824;28;20041;-65
2021/04/27 07:37:50;;;;;;;6.45;0.98;;;11.20;53.80;;;;;;5024825;28;20042;-65
2021/04/27 07:40:16;;;;;;;7.13;1.70;;;11.30;54.40;;;;;;5027307;28;20103;-65
2021/04/27 07:42:43;;;;;;;2.90;0.88;;;11.30;54.30;;;;;;5027322;28;20045;-65
2021/04/27 07:45:11;;;;;;;4.13;0.80;;;11.50;54.90;;;;;;5027549;28;20044;-65
2021/04/27 07:47:37;;;;;;;5.00;1.40;;;11.90;56.30;;;;;;5025461;28;20041;-65
2021/04/27 07:50:05;;;;;;;6.38;1.10;;;12.00;54.10;;;;;;5026417;28;20116;-65
2021/04/27 07:52:31;;;;;;;2.22;1.58;;;12.10;50.00;;;;;;5025840;28;20038;-65
2021/04/27 07:54:57;;;;;;;2.92;1.02;;;11.90;49.90;;;;;;5028147;28;20037;-65
2021/04/27 07:57:23;;;;;;;2.63;1.33;;;11.80;50.20;;;;;;5026592;28;20049;-65
2021/04/27 07:59:48;;;;;;;3.75;1.15;;;11.90;50.50;;;;;;5024945;28;20069;-65
2021/04/27 08:02:14;;;;;;;4.60;1.40;;;11.90;51.10;;;;;;5025375;28;20038;-65
2021/04/27 08:04:40;;;;;;;3.80;1.15;;;12.10;52.80;;;;;;5026007;28;20038;-65
2021/04/27 08:07:06;;;;;;;5.00;1.58;;;12.20;50.40;;;;;;5025655;28;20038;-65
2021/04/27 08:09:32;;;;;;;4.88;1.52;;;12.30;51.60;;;;;;5027355;28;20044;-65
2021/04/27 08:11:57;;;;;;;6.20;1.52;;;12.40;50.60;;;;;;5025909;28;20049;-65
2021/04/27 08:14:23;;;;;;;5.00;2.20;;;12.40;49.20;;;;;;5026465;28;20029;-65
2021/04/27 08:16:50;;;;;;;4.95;1.08;;;12.50;50.00;;;;;;5023910;28;20136;-65
2021/04/27 08:19:15;;;;;;;4.13;1.15;;;12.40;48.90;;;;;;5023991;28;20030;-65
2021/04/27 08:21:41;;;;;;;3.08;1.50;;;12.30;47.40;;;;;;5026610;28;20092;-65
2021/04/27 08:24:08;;;;;;;9.35;1.52;;;12.40;48.80;;;;;;5025083;28;20038;-65
2021/04/27 08:26:34;;;;;;;5.30;1.60;;;12.40;49.50;;;;;;5027794;28;20042;-65
2021/04/27 08:28:59;;;;;;;7.35;1.38;;;12.50;50.00;;;;;;5026431;28;20060;-65
2021/04/27 08:31:25;;;;;;;4.05;1.50;;;12.70;49.60;;;;;;5025718;28;20033;-65
2021/04/27 08:33:51;;;;;;;3.67;1.35;;;12.60;46.20;;;;;;5023647;28;20041;-65
2021/04/27 08:36:17;;;;;;;4.57;1.48;;;12.60;48.40;;;;;;5021207;28;20112;-65
2021/04/27 08:38:43;;;;;;;9.30;2.17;;;12.80;51.70;;;;;;5025901;28;20042;-65
2021/04/27 08:41:09;;;;;;;6.68;1.10;;;13.00;48.50;;;;;;5028157;28;20087;-65
2021/04/27 08:43:35;;;;;;;5.68;1.30;;;13.20;48.60;;;;;;5024866;28;20037;-65
2021/04/27 08:46:01;;;;;;;2.03;0.95;;;13.20;45.60;;;;;;5026904;28;20041;-65
2021/04/27 08:48:27;;;;;;;3.85;1.20;;;13.40;44.60;;;;;;5024086;28;20071;-65
2021/04/27 08:50:53;;;;;;;7.80;1.45;;;13.40;45.70;;;;;;5025731;28;20507;-65
2021/04/27 08:53:20;;;;;;;4.75;1.25;;;13.40;45.10;;;;;;5023476;28;20037;-65
2021/04/27 08:55:47;;;;;;;4.55;1.58;;;13.60;47.30;;;;;;5026174;28;20029;-65
2021/04/27 08:58:13;;;;;;;2.20;1.15;;;13.70;45.40;;;;;;5021775;28;20531;-65
2021/04/27 09:00:40;;;;;;;7.88;1.33;;;13.70;46.50;;;;;;5025712;28;20079;-66
2021/04/27 09:03:09;;;;;;;2.53;1.02;;;13.80;46.70;;;;;;5028232;28;20037;-66
2021/04/27 09:05:37;;;;;;;5.57;1.60;;;14.00;42.70;;;;;;5029150;28;20075;-65
2021/04/27 09:08:03;;;;;;;5.22;1.55;;;13.80;42.00;;;;;;5028910;28;20053;-65
2021/04/27 09:10:39;;;;;;;4.05;1.13;;;13.70;40.20;;;;;;5028242;28;20046;-65
2021/04/27 09:13:16;;;;;;;3.60;1.10;;;13.40;40.10;;;;;;5027415;28;20049;-65
2021/04/27 09:15:43;;;;;;;3.25;1.35;;;13.20;40.70;;;;;;5025603;28;20092;-65
2021/04/27 09:18:41;;;;;;;4.22;1.50;;;13.20;42.30;;;;;;5028569;28;20038;-65
2021/04/27 09:21:09;;;;;;;3.60;2.10;;;13.40;43.30;;;;;;5010783;28;20552;-65
2021/04/27 09:23:40;;;;;;;6.68;1.48;;;13.50;43.60;;;;;;5028792;28;20510;-65
2021/04/27 09:26:06;;;;;;;4.97;1.50;;;13.60;42.30;;;;;;5026750;28;20045;-65
2021/04/27 09:28:36;;;;;;;5.05;1.38;;;13.60;41.70;;;;;;5028885;28;20041;-65
2021/04/27 09:31:22;;;;;;;2.03;0.98;;;13.70;42.40;;;;;;5027722;28;21413;-65
2021/04/27 09:33:48;;;;;;;;;;;13.60;41.10;;;;;;5030652;28;20412;-65
2021/04/27 09:36:22;;;;;;;5.68;1.40;;;13.70;42.30;;;;;;5026560;28;19932;-65
2021/04/27 09:38:52;;;;;;;8.02;1.05;;;13.90;42.40;;;;;;5029790;28;20064;-66
2021/04/27 09:41:25;;;;;;;5.07;1.50;;;14.10;42.90;;;;;;5028189;28;20049;-65
2021/04/27 09:43:52;;;;;;;4.07;1.50;;;14.10;41.10;;;;;;5028342;28;20546;-65
2021/04/27 09:46:22;;;;;;;1.83;1.08;;;13.80;39.40;;;;;;5028073;28;20103;-65
2021/04/27 09:48:58;;;;;;;4.75;1.58;;;13.70;40.70;;;;;;5026569;28;20550;-65
2021/04/27 09:51:29;;;;;;;4.40;1.95;;;13.70;40.50;;;;;;5027804;28;20037;-65
2021/04/27 09:54:00;;;;;;;6.03;1.00;;;13.60;39.80;;;;;;5025120;28;20049;-66
2021/04/27 09:56:48;;;;;;;4.55;1.30;;;13.70;42.00;;;;;;5027443;28;20049;-65
2021/04/27 09:59:31;;;;;;;4.35;1.40;;;13.70;40.90;;;;;;5026178;28;20041;-65
2021/04/27 10:02:04;;;;;;;5.72;1.35;;;13.70;43.30;;;;;;5025447;28;20388;-65
2021/04/27 10:04:30;;;;;;;3.08;1.30;;;13.80;43.10;;;;;;5023337;28;20128;-65
2021/04/27 10:07:00;;;;;;;2.53;1.25;;;13.90;41.20;;;;;;5026716;28;20120;-65
2021/04/27 10:09:26;;;;;;;4.22;0.98;;;14.10;42.10;;;;;;5024720;28;20135;-65
2021/04/27 10:11:52;;;;;;;3.17;1.73;;;14.20;42.30;;;;;;5027792;28;20041;-66
2021/04/27 10:14:18;;;;;;;8.38;1.13;;;14.20;42.10;;;;;;5027633;28;20106;-65
2021/04/27 10:16:44;;;;;;;2.65;1.10;;;14.30;42.00;;;;;;5029279;28;20431;-65
2021/04/27 10:19:11;;;;;;;3.40;1.15;;;14.20;40.00;;;;;;5029271;28;20403;-65
2021/04/27 10:21:37;;;;;;;7.68;2.50;;;14.30;41.70;;;;;;5028087;28;20037;-66
2021/04/27 10:24:16;;;;;;;6.82;1.35;;;14.50;39.10;;;;;;5028674;28;20152;-66
2021/04/27 10:26:47;;;;;;;6.80;1.00;;;14.40;39.20;;;;;;5025148;28;20076;-65
2021/04/27 10:29:18;;;;;;;3.70;1.05;;;14.50;40.50;;;;;;5028144;28;20091;-65
2021/04/27 10:31:45;;;;;;;2.10;0.98;;;14.40;39.00;;;;;;5026762;28;20045;-66
2021/04/27 10:34:14;;;;;;;5.07;1.05;;;14.20;38.30;;;;;;5028654;28;20042;-65
2021/04/27 10:36:49;;;;;;;3.45;1.42;;;14.20;39.80;;;;;;5027525;28;20048;-66
2021/04/27 10:39:34;;;;;;;4.05;0.80;;;14.20;39.30;;;;;;5026412;28;20460;-67
2021/04/27 10:42:17;;;;;;;2.92;1.00;;;14.20;39.00;;;;;;5024132;28;20041;-67
2021/04/27 10:44:55;;;;;;;5.10;1.30;;;14.00;38.30;;;;;;5027861;28;20495;-68
2021/04/27 10:47:22;;;;;;;2.00;1.05;;;14.10;38.20;;;;;;5027976;28;20033;-67
2021/04/27 10:49:49;;;;;;;3.15;1.10;;;14.30;38.90;;;;;;5027704;28;20183;-67
2021/04/27 10:52:26;;;;;;;3.17;1.02;;;14.20;37.70;;;;;;5028687;28;20041;-68
2021/04/27 10:55:29;;;;;;;4.20;1.30;;;14.40;39.60;;;;;;5029388;28;20041;-67
2021/04/27 10:57:57;;;;;;;1.23;0.82;;;14.60;41.60;;;;;;5027716;28;20087;-67
2021/04/27 11:00:42;;;;;;;2.80;1.05;;;14.80;39.60;;;;;;5029562;28;20045;-66
2021/04/27 11:03:18;;;;;;;5.13;1.23;;;15.00;38.70;;;;;;5026742;28;20164;-67
2021/04/27 11:06:05;;;;;;;3.50;1.20;;;15.10;38.70;;;;;;5028191;28;20507;-67
2021/04/27 11:08:50;;;;;;;3.95;1.30;;;15.00;39.60;;;;;;5028326;28;20044;-66
2021/04/27 11:11:35;;;;;;;2.15;1.30;;;14.90;38.50;;;;;;5028747;28;20053;-66
2021/04/27 11:14:20;;;;;;;2.45;0.98;;;14.90;37.90;;;;;;5025080;28;20042;-67
2021/04/27 11:16:56;;;;;;;2.55;0.98;;;15.20;35.30;;;;;;5025569;28;20037;-67
2021/04/27 11:19:26;;;;;;;2.67;1.10;;;15.40;37.30;;;;;;5027363;28;20052;-67
2021/04/27 11:21:55;;;;;;;2.88;1.40;;;15.40;39.00;;;;;;5027159;28;20042;-67
2021/04/27 11:24:39;;;;;;;3.70;1.00;;;15.30;37.30;;;;;;5026069;28;20384;-66
2021/04/27 11:27:18;;;;;;;17.70;1.90;;;15.10;37.00;;;;;;5027050;28;20045;-67
2021/04/27 11:29:54;;;;;;;2.25;1.30;;;15.10;40.00;;;;;;5025226;28;20119;-66
2021/04/27 11:32:19;;;;;;;4.78;1.40;;;14.90;36.70;;;;;;5028241;28;20045;-67
2021/04/27 11:35:00;;;;;;;8.13;1.40;;;14.70;37.20;;;;;;5026878;28;20392;-67
2021/04/27 11:37:31;;;;;;;5.32;1.25;;;14.90;39.10;;;;;;5025243;28;20045;-67
2021/04/27 11:39:59;;;;;;;2.45;1.42;;;14.60;35.20;;;;;;5027083;28;20450;-66
2021/04/27 11:42:28;;;;;;;3.35;1.48;;;14.70;37.40;;;;;;5028611;28;20041;-67
2021/04/27 11:44:57;;;;;;;1.83;1.00;;;14.90;39.40;;;;;;5025619;28;20119;-67
2021/04/27 11:47:23;;;;;;;5.75;1.40;;;14.90;37.70;;;;;;5025414;28;20052;-67
2021/04/27 11:49:55;;;;;;;4.28;1.33;;;15.20;36.00;;;;;;5027283;28;20119;-67
2021/04/27 11:53:00;;;;;;;2.78;1.08;;;15.40;37.80;;;;;;5028084;28;20113;-66
2021/04/27 11:55:33;;;;;;;6.78;1.15;;;15.50;38.80;;;;;;5028548;28;20427;-67
2021/04/27 11:58:05;;;;;;;4.13;1.20;;;15.40;39.80;;;;;;5027593;28;20041;-67
2021/04/27 12:00:45;;;;;;;4.25;1.45;;;15.40;36.70;;;;;;5028196;28;20107;-67
2021/04/27 12:03:26;;;;;;;13.20;1.77;;;15.50;37.00;;;;;;5024063;28;20563;-67
2021/04/27 12:05:53;;;;;;;4.63;1.08;;;15.60;38.70;;;;;;5027860;28;20133;-67
2021/04/27 12:08:25;;;;;;;9.88;1.15;;;15.40;36.60;;;;;;5027284;28;20030;-67
2021/04/27 12:11:09;;;;;;;4.50;1.67;;;15.10;35.90;;;;;;5027143;28;20037;-67
2021/04/27 12:13:35;;;;;;;7.15;1.65;;;14.80;35.20;;;;;;5026102;28;20042;-67
2021/04/27 12:16:06;;;;;;;9.80;1.58;;;14.90;37.10;;;;;;5028349;28;20052;-67
2021/04/27 12:18:44;;;;;;;3.40;1.52;;;14.90;36.50;;;;;;5026061;28;20041;-66
2021/04/27 12:21:39;;;;;;;3.35;1.08;;;15.10;37.20;;;;;;5028075;28;20112;-66
2021/04/27 12:24:14;;;;;;;8.05;1.90;;;15.30;34.70;;;;;;5026062;28;20042;-66
2021/04/27 12:26:52;;;;;;;5.20;1.50;;;15.50;35.30;;;;;;5027070;28;20083;-66
2021/04/27 12:29:30;;;;;;;10.23;1.42;;;15.50;36.90;;;;;;5028940;28;20434;-66
2021/04/27 12:32:26;;;;;;;4.88;1.25;;;15.40;37.10;;;;;;5026459;28;20038;-66
2021/04/27 12:35:00;;;;;;;2.72;1.23;;;15.20;34.60;;;;;;5023616;28;20041;-67
2021/04/27 12:37:29;;;;;;;3.58;1.30;;;15.00;36.50;;;;;;5034894;28;20045;-66
2021/04/27 12:39:56;;;;;;;5.10;1.60;;;14.90;36.60;;;;;;5031694;28;20041;-66
2021/04/27 12:42:28;;;;;;;5.70;1.10;;;14.80;36.00;;;;;;5030274;28;20052;-66
2021/04/27 12:45:12;;;;;;;3.15;1.70;;;14.80;36.20;;;;;;5028975;28;20129;-66
2021/04/27 12:47:38;;;;;;;3.22;1.02;;;14.90;36.80;;;;;;5030580;28;20045;-66
2021/04/27 12:50:14;;;;;;;6.10;1.52;;;15.00;37.00;;;;;;5032030;28;20040;-66
2021/04/27 12:52:41;;;;;;;5.75;1.60;;;14.90;36.30;;;;;;5026729;28;20041;-66
2021/04/27 12:55:17;;;;;;;3.33;1.38;;;14.60;35.90;;;;;;5031486;28;20037;-66
2021/04/27 12:57:43;;;;;;;4.85;1.67;;;14.70;35.20;;;;;;5029970;28;20056;-66
2021/04/27 13:00:11;;;;;;;5.55;1.60;;;14.80;38.40;;;;;;5031465;28;20037;-66